METAR AND TAF INFORMATION
METAR FOR EKEB
ADDS - METARS form results

(1711 UTC 21 June 2021)
Data provider http://aviationweather.gov/metar/data/
 
METAR text: EKEB 211650Z AUTO 33011KT 9999 SCT020/// BKN084/// 13/09 Q1011
Conditions at: EKEB (ESBJERG , DK) observed 1650 UTC 21 June 2021
Temperature: 13.0°C (55°F)
Dewpoint: 9.0°C (48°F) [RH = 77%]
Pressure (altimeter): 29.85 inches Hg (1011.0 mb)
Winds: from the NNW (330 degrees) at 13 MPH (11 knots; 5.7 m/s)
Visibility: 6 or more miles (10+ km)
Ceiling: 8400 feet AGL
Clouds: scattered clouds at 2000 feet AGL
broken clouds at 8400 feet AGL
Weather: no significant weather observed at this time

METAR text: EKEB 211620Z AUTO 33011KT 9999 SCT020/// BKN086/// 13/10 Q1011
Conditions at: EKEB (ESBJERG , DK) observed 1620 UTC 21 June 2021
Temperature: 13.0°C (55°F)
Dewpoint: 10.0°C (50°F) [RH = 82%]
Pressure (altimeter): 29.85 inches Hg (1011.0 mb)
Winds: from the NNW (330 degrees) at 13 MPH (11 knots; 5.7 m/s)
Visibility: 6 or more miles (10+ km)
Ceiling: 8600 feet AGL
Clouds: scattered clouds at 2000 feet AGL
broken clouds at 8600 feet AGL
Weather: no significant weather observed at this time

Forecast for: EKEB (ESBJERG , DK)
Text: TAF EKEB 211429Z 2115/2121 34008KT 9999 SCT020
Forecast period: 1500 to 2100 UTC 21 June 2021
Forecast type: FROM: standard forecast or significant change
Winds: from the NNW (340 degrees) at 9 MPH (8 knots; 4.1 m/s)
Visibility: 6 or more miles (10+ km)
Ceiling: at least 12,000 feet AGL
Clouds: scattered clouds at 2000 feet AGL
Weather: no significant weather forecast for this period

 AIRPORT MAP

 RUNWAY INFORMATION
Runway 08 Runway length 8527 ft Runway width 148 ft
Runway elevation 78 ft Runway displaced threshold 0 ft Runway heading 79
Runway 26 Runway length 8527 ft Runway width 148 ft
Runway elevation 97 ft Runway displaced threshold 0 ft Runway heading 259

 AIRPORT FREQUENCIES
Type AFIS Name AFIS Frequency 120.15 MHZ
Type MISC Name HANDLING Frequency 130.575 MHZ

 AIRPORT NEAR NAVIGATION AIDS
Type NDB Name Esbjerg Frequency 376 KHZ



Powered by Virtual Airlines Manager [v2.6.2]

Hosted by Utixo.it